Share

Beef Island, British Virgin Islands

ISTJOHNC2 Elev 341 ft | 18.33 °N, 64.78 °W | Change Station

Current weather conditions updated 2 minutes ago

Clear
Clear
74.2 °F
Feels Like 74 °F
N
8.0
Wind Variable Wind from East
Gusts 14.0 mph
Sunrise 5:59 AM
Sunset 6:35 PM
Moon Waning Gibbous

Today is forecast to be nearly the same temperature as yesterday. Showers.

Pressure 29.97 in
Visibility 10.0 miles
Clouds Clear
Heat Index 74 °F
Dew Point 70 °F
Humidity 85%
Rainfall 0.00 in
Snow Depth Not available.
UV 0 out of 16
Pollen Not available.
Air Quality Not available.
Flu Activity Not available.
METAR TIST 170653Z 09009KT 10SM CLR 25/22 A2997 RMK AO2 SLP149 T02500222

More Conditions Fewer Conditions

Pressure 29.97 in
Visibility 10.0 miles
Clouds Clear
Heat Index 74 °F
Dew Point 70 °F
Humidity 85%
Rainfall 0.00 in
Snow Depth Not available.
UV 0 out of 16
Pollen Not available.
Air Quality Not available.
Flu Activity Not available.
METAR TIST 170653Z 09009KT 10SM CLR 25/22 A2997 RMK AO2 SLP149 T02500222

More Conditions Fewer Conditions

10-Day Forecast

Almanac

Astronomy

Apr. 17, 2014 Rise Set
Actual Time 5:59 AM AST 6:35 PM AST
Civil Twilight 5:37 AM AST 6:58 PM AST
Nautical Twilight 5:11 AM AST 7:24 PM AST
Astronomical Twilight 4:45 AM AST 7:50 PM AST
Moon 9:00 PM AST 7:42 AM AST
Length of Visible Light 13h 20m
Length of Day
12h 35m
Tomorrow will be 0m 59s longer.
Waning Gibbous, 95% of the Moon is Illuminated
Today
Waning Gibbous
Apr 22
Last Quarter
Apr 29
New
May 6
First Quarter
May 14
Full

Yesterday's Extremes

Country Highs Country Lows

Community

  • Sunset over the Bay
    Sunset over the Bay
  • symphony in blue....
    symphony in blue....
  • Dawn Surprise
    Dawn Surprise
  • Yucca delight
    Yucca delight
  • Sunset inside of the Ocean
    Sunset inside of the Ocean

WunderPhotos

Upload Photos

1,701,875 photos uploaded!

WunderBlogs® & News

Nearby

Snow Depth

Not available.

Coastal Water Temperatures

Place Temperature
No Stations Reporting

Earthquake Activity

City Distance Mag. Time & Date
No recent earthquake activity has been reported nearby.
Minimum magnitude displayed is 2.5.

Nearby Weather Stations

Station Location Temp. Heat Index Dew Point Humidity Wind Precip. Elev Updated Type
Estate Bethany 74.2 °F 74 °F 70 °F 85% East  at  8.0 mph 0.00 in / hr 341 ft 3:28 AM AST Normal
Great Cruz Bay, St John, St John 75.9 °F 77 °F 70 °F 81% East  at  9.0 mph 0.00 in / hr 325 ft 3:31 AM AST Normal
Bovoni, St Thomas 76.3 °F 77 °F 70 °F 82% NE  at  14.0 mph 0.00 in / hr 3 ft 3:31 AM AST Rapid Fire

Show More Stations Show Fewer Stations

What do you think?

We're not finished. Please let us know what you like, what you don't like, and what you are still missing.